Time;durP1;ratioP1;P1;durP2;ratioP2;P2;SDS_P1;SDS_P2;PMS_P1;PMS_P2;Temp;Humidity;BMP_temperature;BMP_pressure;BME280_temperature;BME280_humidity;BME280_pressure;Samples;Min_cycle;Max_cycle;Signal;HPM_P1;HPM_P2
2022/06/18 00:04:31;;;;;;;1.60;1.50;;;;;;;18.40;80.69;101352.56;20798435;28;20050;-75
2022/06/18 00:14:33;;;;;;;1.85;1.58;;;;;;;18.32;80.87;101322.72;20796301;28;20056;-75
2022/06/18 00:24:34;;;;;;;1.98;1.65;;;;;;;18.46;80.70;101339.56;20797380;28;20049;-76
2022/06/18 00:34:36;;;;;;;2.03;1.90;;;;;;;18.43;80.69;101329.03;20797185;28;20045;-76
2022/06/18 00:44:39;;;;;;;1.70;1.60;;;;;;;18.40;80.56;101322.91;20795840;28;20502;-76
2022/06/18 00:54:46;;;;;;;7.03;1.80;;;;;;;18.45;80.86;101316.28;20794940;28;20041;-76
2022/06/18 01:04:48;;;;;;;2.00;1.83;;;;;;;18.45;81.02;101310.88;20881542;28;20063;-75
2022/06/18 01:15:01;;;;;;;2.05;1.70;;;;;;;18.46;81.04;101304.50;20892524;28;20049;-76
2022/06/18 01:25:07;;;;;;;1.80;1.70;;;;;;;18.29;81.06;101266.38;20891163;28;20040;-76
2022/06/18 01:35:13;;;;;;;2.10;1.83;;;;;;;18.26;81.03;101261.25;20871460;28;20064;-76
2022/06/18 01:45:32;;;;;;;2.78;1.73;;;;;;;18.44;81.06;101285.78;20864240;28;20056;-76
2022/06/18 01:55:41;;;;;;;2.20;1.80;;;;;;;18.38;80.97;101276.38;20804521;28;20073;-76
2022/06/18 02:05:43;;;;;;;2.13;1.92;;;;;;;18.44;81.12;101269.63;20845917;28;20122;-76
2022/06/18 02:15:46;;;;;;;2.47;2.00;;;;;;;18.44;81.38;101260.66;20857634;28;20046;-75
2022/06/18 02:25:48;;;;;;;2.08;1.88;;;;;;;18.35;81.48;101252.38;20836294;28;20040;-76
2022/06/18 02:35:49;;;;;;;2.10;1.85;;;;;;;18.43;81.66;101265.22;20817105;28;20111;-76
2022/06/18 02:45:53;;;;;;;2.20;2.00;;;;;;;18.44;81.70;101257.97;20788531;28;20096;-75
2022/06/18 02:55:57;;;;;;;2.42;1.90;;;;;;;18.43;81.77;101269.72;20786611;28;20061;-75
2022/06/18 03:05:59;;;;;;;2.87;2.30;;;;;;;18.41;81.74;101268.03;20842383;28;20507;-75
2022/06/18 03:16:02;;;;;;;2.13;1.92;;;;;;;18.34;81.78;101274.94;20797214;28;20144;-75
2022/06/18 03:26:04;;;;;;;3.08;2.25;;;;;;;18.43;82.18;101299.38;20783501;28;20046;-76
2022/06/18 03:36:07;;;;;;;3.40;2.17;;;;;;;18.43;82.01;101310.16;20798538;28;20506;-76
2022/06/18 03:46:13;;;;;;;3.03;2.30;;;;;;;18.42;82.26;101314.72;20786388;28;20052;-76
2022/06/18 03:56:19;;;;;;;2.20;2.00;;;;;;;18.14;82.22;101286.56;20879507;28;20564;-75
2022/06/18 04:06:21;;;;;;;2.58;2.38;;;;;;;18.08;82.21;101269.03;20877302;28;20045;-75
2022/06/18 04:16:23;;;;;;;3.47;2.25;;;;;;;18.29;82.27;101325.69;20896131;28;20067;-76
2022/06/18 04:26:26;;;;;;;2.60;2.40;;;;;;;18.41;82.56;101339.97;20862685;28;20069;-75
2022/06/18 04:36:34;;;;;;;2.80;2.60;;;;;;;18.42;82.77;101336.28;20880691;28;20068;-75
2022/06/18 04:46:43;;;;;;;2.73;2.27;;;;;;;18.41;82.61;101321.94;20813020;28;20555;-76
2022/06/18 04:56:47;;;;;;;2.50;2.30;;;;;;;18.42;82.88;101320.13;20811279;28;20061;-75
2022/06/18 05:06:48;;;;;;;2.65;2.42;;;;;;;18.44;82.96;101322.66;20810790;28;20096;-76
2022/06/18 05:17:04;;;;;;;2.90;2.70;;;;;;;18.45;83.26;101322.53;20892563;28;20044;-76
2022/06/18 05:27:18;;;;;;;2.92;2.60;;;;;;;18.46;83.61;101318.88;20892170;28;20065;-75
2022/06/18 05:37:22;;;;;;;3.25;2.95;;;;;;;18.46;84.00;101326.94;20851126;28;20045;-75
2022/06/18 05:47:28;;;;;;;3.07;2.70;;;;;;;18.46;84.36;101345.81;20794271;28;20132;-76
2022/06/18 05:57:31;;;;;;;3.13;2.80;;;;;;;18.47;84.53;101354.75;20888281;28;20061;-75
2022/06/18 06:07:49;;;;;;;3.50;3.10;;;;;;;18.39;84.86;101356.25;20872265;28;20409;-76
2022/06/18 06:17:50;;;;;;;3.20;2.95;;;;;;;18.46;85.12;101369.22;20805487;28;20053;-76
2022/06/18 06:27:52;;;;;;;3.90;3.10;;;;;;;18.34;85.64;101358.47;20805872;28;20126;-75
2022/06/18 06:37:54;;;;;;;3.13;2.92;;;;;;;18.46;85.70;101386.25;20836323;28;20505;-76
2022/06/18 06:47:56;;;;;;;4.18;3.40;;;;;;;18.47;86.24;101389.81;20881617;28;20045;-76
2022/06/18 06:57:58;;;;;;;3.83;3.50;;;;;;;18.48;86.36;101400.47;20801507;28;20064;-76
2022/06/18 07:07:59;;;;;;;3.58;3.25;;;;;;;18.48;86.66;101407.69;20799394;28;20414;-76
2022/06/18 07:18:03;;;;;;;3.33;2.95;;;;;;;18.52;86.71;101395.66;20899629;28;20060;-75
2022/06/18 07:28:05;;;;;;;3.27;2.97;;;;;;;18.60;86.88;101403.13;20948653;28;20382;-76
2022/06/18 07:38:07;;;;;;;4.85;3.38;;;;;;;18.65;86.59;101411.66;20889896;28;20052;-76
2022/06/18 07:48:13;;;;;;;;;;;;;;;18.74;86.14;101423.53;20821984;28;20045;-76
2022/06/18 07:58:15;;;;;;;3.67;2.92;;;;;;;18.77;86.05;101420.59;20714878;28;19928;-76
2022/06/18 08:08:17;;;;;;;3.92;3.00;;;;;;;18.80;85.89;101418.50;20767381;28;20055;-76
2022/06/18 08:18:35;;;;;;;3.42;2.88;;;;;;;18.80;86.07;101414.94;20833216;28;20050;-75
2022/06/18 08:28:38;;;;;;;4.03;2.95;;;;;;;18.84;86.08;101419.94;20757295;28;20046;-75
2022/06/18 08:38:41;;;;;;;3.38;2.78;;;;;;;18.85;86.05;101420.78;20854775;28;20055;-75
2022/06/18 08:49:09;;;;;;;3.58;2.72;;;;;;;18.84;86.21;101410.97;20790526;28;20051;-75
2022/06/18 08:59:20;;;;;;;3.40;2.78;;;;;;;18.84;86.48;101429.88;20797358;28;20050;-75
2022/06/18 09:09:38;;;;;;;4.25;2.50;;;;;;;18.84;86.72;101427.16;20797051;28;20045;-75
2022/06/18 09:19:41;;;;;;;3.00;2.70;;;;;;;18.84;86.97;101433.44;20873908;28;20041;-75
2022/06/18 09:29:44;;;;;;;2.92;2.55;;;;;;;18.83;86.91;101436.25;20854159;28;20060;-75
2022/06/18 09:39:49;;;;;;;3.50;2.55;;;;;;;18.82;87.35;101442.63;20872416;28;20092;-75
2022/06/18 09:49:50;;;;;;;3.00;2.57;;;;;;;18.82;87.56;101434.53;20808843;28;20059;-76
2022/06/18 10:00:16;;;;;;;3.55;2.22;;;;;;;18.82;88.08;101442.63;20889489;28;20075;-76
2022/06/18 10:10:22;;;;;;;2.95;2.33;;;;;;;18.77;88.67;101431.38;20829708;28;20562;-76
2022/06/18 10:20:46;;;;;;;3.03;2.50;;;;;;;18.80;88.91;101418.50;20805786;28;20047;-76
2022/06/18 10:31:06;;;;;;;3.20;2.37;;;;;;;18.81;89.13;101413.94;20778876;28;20037;-76
2022/06/18 10:41:24;;;;;;;2.53;2.33;;;;;;;18.79;89.44;101397.91;20733375;28;20048;-75
2022/06/18 10:51:27;;;;;;;3.05;2.60;;;;;;;18.80;89.80;101391.53;20886028;28;20462;-76
2022/06/18 11:01:31;;;;;;;2.88;2.10;;;;;;;18.80;90.09;101390.66;20830641;28;20053;-76
2022/06/18 11:11:36;;;;;;;3.70;2.47;;;;;;;18.79;90.24;101376.31;20801192;28;20441;-76
2022/06/18 11:21:40;;;;;;;4.60;2.35;;;;;;;18.80;90.63;101382.56;20803386;28;20056;-76
2022/06/18 11:31:49;;;;;;;4.60;2.20;;;;;;;18.82;91.56;101365.25;20779424;28;20049;-76
2022/06/18 11:41:53;;;;;;;3.85;2.30;;;;;;;18.94;94.25;101374.13;20825474;28;20448;-76
2022/06/18 11:52:14;;;;;;;2.47;2.00;;;;;;;19.04;93.97;101373.41;20834556;28;20525;-76
2022/06/18 12:02:28;;;;;;;3.67;1.95;;;;;;;19.15;93.13;101381.41;20793759;28;20069;-77
2022/06/18 12:13:04;;;;;;;2.08;1.88;;;;;;;19.16;89.74;101366.91;20845484;28;20064;-77
2022/06/18 12:23:06;;;;;;;;;;;;;;;19.14;89.94;101377.00;20797084;28;20540;-77
2022/06/18 12:33:20;;;;;;;2.83;1.90;;;;;;;19.12;89.86;101387.91;20806801;28;19921;-77
2022/06/18 12:43:22;;;;;;;3.23;1.87;;;;;;;19.13;90.30;101378.81;20823836;28;20784;-78
2022/06/18 12:53:35;;;;;;;1.85;1.67;;;;;;;19.17;90.41;101375.84;20842185;28;20051;-77
2022/06/18 13:03:53;;;;;;;1.90;1.80;;;;;;;19.10;90.60;101379.09;20850243;28;20056;-78
2022/06/18 13:14:33;;;;;;;2.10;1.58;;;;;;;19.19;90.29;101377.44;20857600;28;20049;-77
2022/06/18 13:35:33;;;;;;;1.55;1.45;;;;;;;19.16;90.99;101366.06;20862355;28;20147;-77
2022/06/18 13:45:52;;;;;;;2.42;1.77;;;;;;;18.95;94.11;101321.88;20824317;28;20058;-77
2022/06/18 13:55:55;;;;;;;1.80;1.40;;;;;;;19.21;95.34;101356.56;20777138;28;20056;-77
2022/06/18 14:05:56;;;;;;;2.40;1.33;;;;;;;19.35;95.23;101352.69;20800374;28;20058;-76
2022/06/18 14:16:04;;;;;;;2.55;1.20;;;;;;;19.39;93.74;101353.25;20813344;28;20049;-76
2022/06/18 14:26:15;;;;;;;3.22;1.50;;;;;;;19.34;93.83;101348.25;20869884;28;20071;-76
2022/06/18 14:36:28;;;;;;;1.85;1.20;;;;;;;19.31;94.20;101347.66;20872675;28;20186;-77
2022/06/18 14:46:49;;;;;;;1.13;1.02;;;;;;;19.26;94.39;101340.84;20867870;28;20083;-77
2022/06/18 14:57:04;;;;;;;1.40;1.05;;;;;;;19.20;94.21;101333.28;20810276;28;20084;-76
2022/06/18 15:07:07;;;;;;;2.38;1.30;;;;;;;19.20;93.59;101341.38;20837964;28;20456;-76
2022/06/18 15:17:30;;;;;;;1.23;0.90;;;;;;;19.19;93.98;101339.66;20847785;28;20060;-76
2022/06/18 15:27:32;;;;;;;3.78;1.10;;;;;;;19.17;93.92;101328.16;20844290;28;20057;-75
2022/06/18 15:37:58;;;;;;;2.22;1.55;;;;;;;18.88;93.60;101303.69;20819275;28;20057;-75
2022/06/18 15:48:03;;;;;;;1.88;1.25;;;;;;;19.14;93.20;101336.50;20766155;28;20505;-75
2022/06/18 15:58:05;;;;;;;;;;;;;;;19.14;93.09;101320.31;20802448;28;20049;-76
2022/06/18 16:08:31;;;;;;;3.20;1.40;;;;;;;19.11;92.96;101302.53;20805837;28;19928;-76
2022/06/18 16:18:34;;;;;;;2.33;1.50;;;;;;;19.10;92.75;101308.09;20759713;28;20088;-76
2022/06/18 16:28:39;;;;;;;2.03;0.90;;;;;;;19.07;92.32;101287.59;20762194;28;20081;-76
2022/06/18 16:38:43;;;;;;;1.97;1.07;;;;;;;19.09;92.12;101301.81;20832292;28;20493;-75
2022/06/18 16:48:45;;;;;;;1.30;1.07;;;;;;;19.02;92.21;101284.47;20847620;28;20292;-75
2022/06/18 16:58:46;;;;;;;3.92;1.27;;;;;;;19.11;92.23;101277.41;20777589;28;20033;-75
2022/06/18 17:08:48;;;;;;;2.88;1.30;;;;;;;19.02;91.83;101279.06;20792009;28;20049;-75
2022/06/18 17:18:50;;;;;;;1.70;0.90;;;;;;;19.08;91.28;101280.38;20803262;28;20049;-75
2022/06/18 17:39:13;;;;;;;1.35;0.75;;;;;;;19.06;91.50;101285.06;20825834;28;20060;-75
2022/06/18 17:49:14;;;;;;;3.05;0.90;;;;;;;19.04;91.40;101284.34;20825527;28;20049;-75
2022/06/18 17:59:17;;;;;;;3.10;1.02;;;;;;;19.01;91.21;101254.94;20871925;28;20102;-75
2022/06/18 18:09:19;;;;;;;1.98;1.17;;;;;;;18.96;90.59;101234.56;20935740;28;20060;-75
2022/06/18 18:19:21;;;;;;;1.65;0.90;;;;;;;18.96;90.32;101220.22;20916234;28;20127;-75
2022/06/18 18:29:23;;;;;;;2.65;1.05;;;;;;;18.94;89.93;101217.66;20921660;28;20056;-75
2022/06/18 18:39:25;;;;;;;2.45;0.98;;;;;;;18.91;89.50;101204.44;20929115;28;20052;-75
2022/06/18 18:49:31;;;;;;;3.45;1.20;;;;;;;18.90;89.10;101183.00;20924834;28;20102;-75
2022/06/18 18:59:32;;;;;;;2.33;1.00;;;;;;;18.88;88.58;101175.03;20890231;28;20138;-75
2022/06/18 19:09:35;;;;;;;4.07;1.23;;;;;;;18.86;88.35;101170.78;20831876;28;20077;-75
2022/06/18 19:19:37;;;;;;;3.22;1.02;;;;;;;18.77;88.20;101161.66;20823406;28;20046;-75
2022/06/18 19:29:38;;;;;;;3.55;1.13;;;;;;;18.85;87.60;101169.91;20771719;28;20065;-74
2022/06/18 19:39:41;;;;;;;2.78;1.00;;;;;;;18.69;87.40;101179.38;20789813;28;20072;-75
2022/06/18 19:49:42;;;;;;;3.33;1.38;;;;;;;18.82;87.01;101154.88;20779485;28;20050;-75
2022/06/18 19:59:44;;;;;;;2.85;1.20;;;;;;;18.73;86.81;101122.47;20787995;28;20042;-75
2022/06/18 20:09:52;;;;;;;3.40;1.13;;;;;;;18.81;86.43;101157.69;20771859;28;20049;-75
2022/06/18 20:19:53;;;;;;;3.17;1.23;;;;;;;18.79;85.93;101176.72;20783082;28;20099;-75
2022/06/18 20:29:55;;;;;;;2.90;0.88;;;;;;;18.79;85.73;101213.63;20814902;28;20340;-75
2022/06/18 20:39:57;;;;;;;4.03;1.58;;;;;;;18.58;85.44;101155.19;20739609;28;20065;-75
2022/06/18 20:49:58;;;;;;;3.22;1.08;;;;;;;18.76;85.18;101168.88;20809876;28;20148;-75
2022/06/18 21:00:00;;;;;;;3.55;1.33;;;;;;;18.68;85.32;101125.56;20882464;28;20520;-75
2022/06/18 21:10:03;;;;;;;3.30;1.40;;;;;;;18.74;85.03;101134.94;20825036;28;20058;-75
2022/06/18 21:20:06;;;;;;;3.15;1.10;;;;;;;18.61;84.98;101052.47;20778224;28;20457;-75
2022/06/18 21:30:08;;;;;;;3.50;1.38;;;;;;;18.73;84.88;101090.09;20837292;28;20060;-75
2022/06/18 21:40:10;;;;;;;3.50;1.10;;;;;;;18.71;84.70;101082.13;20780632;28;20058;-75
2022/06/18 21:50:13;;;;;;;3.33;1.25;;;;;;;18.49;84.33;101046.31;20821695;28;20053;-75
2022/06/18 22:00:20;;;;;;;3.13;1.40;;;;;;;18.70;84.37;101084.00;20794251;28;20494;-75
2022/06/18 22:10:22;;;;;;;2.15;1.05;;;;;;;18.69;83.97;101122.72;20802001;28;20414;-75
2022/06/18 22:20:24;;;;;;;2.75;1.25;;;;;;;18.64;83.51;101111.50;20790486;28;20045;-75
2022/06/18 22:30:25;;;;;;;3.53;1.48;;;;;;;18.67;83.54;101119.31;20773393;28;20044;-75
2022/06/18 22:40:30;;;;;;;3.33;1.58;;;;;;;18.66;83.33;101106.81;20804327;28;20049;-75
2022/06/18 22:50:32;;;;;;;2.60;1.20;;;;;;;18.66;83.29;101119.44;20794505;28;20108;-75
2022/06/18 23:00:33;;;;;;;4.97;1.60;;;;;;;18.60;83.09;101091.19;20804933;28;20057;-75
2022/06/18 23:10:36;;;;;;;4.60;1.30;;;;;;;18.64;82.85;101071.06;20776152;28;20054;-75
2022/06/18 23:20:38;;;;;;;3.33;1.10;;;;;;;18.62;82.66;101037.13;20796525;28;20513;-75
2022/06/18 23:30:41;;;;;;;3.58;1.15;;;;;;;18.61;82.52;101000.34;20809083;28;20107;-75
2022/06/18 23:40:45;;;;;;;3.60;1.50;;;;;;;18.60;82.58;100959.06;20790904;28;20045;-75
2022/06/18 23:50:47;;;;;;;3.17;1.60;;;;;;;18.58;82.19;100936.81;20808945;28;20045;-75
